sensor_id;sensor_type;location;lat;lon;timestamp;pressure;altitude;pressure_sealevel;temperature;humidity
66176;BME280;52977;44.816;20.538;2024-01-30T00:02:15;102018.66;;;4.08;89.23
66176;BME280;52977;44.816;20.538;2024-01-30T00:04:41;102025.97;;;4.08;89.35
66176;BME280;52977;44.816;20.538;2024-01-30T00:07:08;102024.53;;;4.05;89.38
66176;BME280;52977;44.816;20.538;2024-01-30T00:09:34;102028.72;;;4.01;89.88
66176;BME280;52977;44.816;20.538;2024-01-30T00:12:01;102022.50;;;4.01;89.94
66176;BME280;52977;44.816;20.538;2024-01-30T00:14:27;102034.34;;;4.00;90.01
66176;BME280;52977;44.816;20.538;2024-01-30T00:16:53;102028.13;;;3.99;90.01
66176;BME280;52977;44.816;20.538;2024-01-30T00:19:20;102031.88;;;3.98;90.32
66176;BME280;52977;44.816;20.538;2024-01-30T00:21:46;102030.38;;;4.02;91.02
66176;BME280;52977;44.816;20.538;2024-01-30T00:24:12;102032.47;;;4.00;91.39
66176;BME280;52977;44.816;20.538;2024-01-30T00:26:38;102040.16;;;4.03;90.89
66176;BME280;52977;44.816;20.538;2024-01-30T00:29:05;102047.84;;;4.00;90.65
66176;BME280;52977;44.816;20.538;2024-01-30T00:31:31;102038.53;;;3.96;91.31
66176;BME280;52977;44.816;20.538;2024-01-30T00:33:58;102041.25;;;3.96;91.42
66176;BME280;52977;44.816;20.538;2024-01-30T00:36:24;102032.09;;;3.97;91.21
66176;BME280;52977;44.816;20.538;2024-01-30T00:38:50;102041.84;;;3.98;90.98
66176;BME280;52977;44.816;20.538;2024-01-30T00:41:19;102037.06;;;4.00;90.84
66176;BME280;52977;44.816;20.538;2024-01-30T00:43:46;102042.91;;;3.97;90.79
66176;BME280;52977;44.816;20.538;2024-01-30T00:46:12;102038.09;;;3.99;91.02
66176;BME280;52977;44.816;20.538;2024-01-30T00:48:38;102051.81;;;3.97;91.41
66176;BME280;52977;44.816;20.538;2024-01-30T00:51:04;102048.53;;;3.95;91.26
66176;BME280;52977;44.816;20.538;2024-01-30T00:53:31;102041.84;;;3.98;91.93
66176;BME280;52977;44.816;20.538;2024-01-30T00:55:57;102043.94;;;3.96;91.17
66176;BME280;52977;44.816;20.538;2024-01-30T00:58:23;102042.06;;;3.96;91.03
66176;BME280;52977;44.816;20.538;2024-01-30T01:00:50;102038.75;;;3.94;91.40
66176;BME280;52977;44.816;20.538;2024-01-30T01:03:16;102038.44;;;3.84;92.46
66176;BME280;52977;44.816;20.538;2024-01-30T01:05:42;102040.03;;;3.91;91.23
66176;BME280;52977;44.816;20.538;2024-01-30T01:08:10;102037.53;;;3.90;91.90
66176;BME280;52977;44.816;20.538;2024-01-30T01:10:36;102031.91;;;3.91;91.23
66176;BME280;52977;44.816;20.538;2024-01-30T01:13:02;102031.50;;;3.88;91.38
66176;BME280;52977;44.816;20.538;2024-01-30T01:15:29;102034.88;;;3.83;92.21
66176;BME280;52977;44.816;20.538;2024-01-30T01:17:55;102030.53;;;3.82;91.90
66176;BME280;52977;44.816;20.538;2024-01-30T01:20:20;102030.53;;;3.82;92.37
66176;BME280;52977;44.816;20.538;2024-01-30T01:22:47;102036.31;;;3.86;91.88
66176;BME280;52977;44.816;20.538;2024-01-30T01:25:13;102029.47;;;3.83;92.68
66176;BME280;52977;44.816;20.538;2024-01-30T01:27:39;102028.50;;;3.78;92.25
66176;BME280;52977;44.816;20.538;2024-01-30T01:30:10;102032.69;;;3.73;93.58
66176;BME280;52977;44.816;20.538;2024-01-30T01:32:37;102038.69;;;3.75;93.19
66176;BME280;52977;44.816;20.538;2024-01-30T01:35:04;102036.59;;;3.78;92.72
66176;BME280;52977;44.816;20.538;2024-01-30T01:37:31;102039.97;;;3.73;93.23
66176;BME280;52977;44.816;20.538;2024-01-30T01:39:57;102048.28;;;3.71;93.34
66176;BME280;52977;44.816;20.538;2024-01-30T01:42:24;102038.97;;;3.67;93.03
66176;BME280;52977;44.816;20.538;2024-01-30T01:44:50;102035.59;;;3.72;92.90
66176;BME280;52977;44.816;20.538;2024-01-30T01:47:16;102033.56;;;3.67;93.41
66176;BME280;52977;44.816;20.538;2024-01-30T01:49:43;102029.16;;;3.73;93.01
66176;BME280;52977;44.816;20.538;2024-01-30T01:52:09;102040.41;;;3.70;94.07
66176;BME280;52977;44.816;20.538;2024-01-30T01:54:36;102030.25;;;3.65;93.50
66176;BME280;52977;44.816;20.538;2024-01-30T01:57:02;102032.97;;;3.58;94.88
66176;BME280;52977;44.816;20.538;2024-01-30T01:59:29;102036.75;;;3.57;95.10
66176;BME280;52977;44.816;20.538;2024-01-30T02:01:55;102037.56;;;3.58;94.68
66176;BME280;52977;44.816;20.538;2024-01-30T02:04:21;102034.91;;;3.51;94.74
66176;BME280;52977;44.816;20.538;2024-01-30T02:06:48;102033.69;;;3.47;94.29
66176;BME280;52977;44.816;20.538;2024-01-30T02:09:14;102037.00;;;3.49;95.01
66176;BME280;52977;44.816;20.538;2024-01-30T02:11:40;102032.59;;;3.55;94.48
66176;BME280;52977;44.816;20.538;2024-01-30T02:14:08;102033.09;;;3.45;95.51
66176;BME280;52977;44.816;20.538;2024-01-30T02:16:34;102030.38;;;3.45;94.96
66176;BME280;52977;44.816;20.538;2024-01-30T02:19:01;102042.22;;;3.44;95.39
66176;BME280;52977;44.816;20.538;2024-01-30T02:21:27;102036.63;;;3.39;95.89
66176;BME280;52977;44.816;20.538;2024-01-30T02:23:54;102034.34;;;3.42;95.62
66176;BME280;52977;44.816;20.538;2024-01-30T02:26:22;102039.97;;;3.41;95.21
66176;BME280;52977;44.816;20.538;2024-01-30T02:28:48;102037.25;;;3.41;95.55
66176;BME280;52977;44.816;20.538;2024-01-30T02:31:14;102029.81;;;3.36;96.37
66176;BME280;52977;44.816;20.538;2024-01-30T02:33:40;102026.94;;;3.31;97.17
66176;BME280;52977;44.816;20.538;2024-01-30T02:36:07;102032.34;;;3.31;96.30
66176;BME280;52977;44.816;20.538;2024-01-30T02:38:33;102023.47;;;3.17;97.67
66176;BME280;52977;44.816;20.538;2024-01-30T02:40:59;102026.16;;;3.17;97.59
66176;BME280;52977;44.816;20.538;2024-01-30T02:43:26;102029.25;;;3.21;97.01
66176;BME280;52977;44.816;20.538;2024-01-30T02:45:52;102022.25;;;3.13;96.98
66176;BME280;52977;44.816;20.538;2024-01-30T02:48:18;102017.66;;;3.14;96.91
66176;BME280;52977;44.816;20.538;2024-01-30T02:50:44;102020.16;;;3.15;96.92
66176;BME280;52977;44.816;20.538;2024-01-30T02:53:10;102030.34;;;3.13;96.87
66176;BME280;52977;44.816;20.538;2024-01-30T02:55:36;102027.47;;;3.08;96.33
66176;BME280;52977;44.816;20.538;2024-01-30T02:58:03;102035.78;;;3.00;96.25
66176;BME280;52977;44.816;20.538;2024-01-30T03:00:29;102028.16;;;2.90;96.39
66176;BME280;52977;44.816;20.538;2024-01-30T03:02:55;102031.06;;;2.88;96.33
66176;BME280;52977;44.816;20.538;2024-01-30T03:05:21;102039.00;;;2.83;96.96
66176;BME280;52977;44.816;20.538;2024-01-30T03:07:48;102034.00;;;2.80;96.75
66176;BME280;52977;44.816;20.538;2024-01-30T03:10:14;102033.63;;;2.77;96.68
66176;BME280;52977;44.816;20.538;2024-01-30T03:12:40;102033.63;;;2.77;96.34
66176;BME280;52977;44.816;20.538;2024-01-30T03:15:07;102038.38;;;2.74;95.63
66176;BME280;52977;44.816;20.538;2024-01-30T03:17:33;102032.53;;;2.84;95.86
66176;BME280;52977;44.816;20.538;2024-01-30T03:19:59;102036.03;;;2.91;94.43
66176;BME280;52977;44.816;20.538;2024-01-30T03:22:26;102032.50;;;2.91;93.84
66176;BME280;52977;44.816;20.538;2024-01-30T03:24:52;102025.66;;;2.88;94.13
66176;BME280;52977;44.816;20.538;2024-01-30T03:27:18;102022.38;;;2.86;93.98
66176;BME280;52977;44.816;20.538;2024-01-30T03:29:44;102025.88;;;2.87;94.43
66176;BME280;52977;44.816;20.538;2024-01-30T03:32:10;102029.63;;;2.86;94.59
66176;BME280;52977;44.816;20.538;2024-01-30T03:34:36;102029.44;;;2.81;94.76
66176;BME280;52977;44.816;20.538;2024-01-30T03:37:02;102026.56;;;2.69;95.15
66176;BME280;52977;44.816;20.538;2024-01-30T03:39:28;102017.66;;;2.68;95.56
66176;BME280;52977;44.816;20.538;2024-01-30T03:41:56;102026.34;;;2.77;95.42
66176;BME280;52977;44.816;20.538;2024-01-30T03:44:21;102020.16;;;2.70;95.65
66176;BME280;52977;44.816;20.538;2024-01-30T03:46:47;102021.38;;;2.67;95.56
66176;BME280;52977;44.816;20.538;2024-01-30T03:49:13;102020.97;;;2.70;96.05
66176;BME280;52977;44.816;20.538;2024-01-30T03:51:38;102029.03;;;2.77;95.76
66176;BME280;52977;44.816;20.538;2024-01-30T03:54:04;102018.69;;;2.74;95.37
66176;BME280;52977;44.816;20.538;2024-01-30T03:56:30;102028.22;;;2.70;95.27
66176;BME280;52977;44.816;20.538;2024-01-30T03:58:55;102025.97;;;2.73;95.29
66176;BME280;52977;44.816;20.538;2024-01-30T04:01:22;102022.59;;;2.78;94.88
66176;BME280;52977;44.816;20.538;2024-01-30T04:03:47;102028.38;;;2.82;94.27
66176;BME280;52977;44.816;20.538;2024-01-30T04:06:13;102026.13;;;2.79;94.47
66176;BME280;52977;44.816;20.538;2024-01-30T04:08:39;102022.59;;;2.78;94.32
66176;BME280;52977;44.816;20.538;2024-01-30T04:11:05;102019.28;;;2.76;94.30
66176;BME280;52977;44.816;20.538;2024-01-30T04:13:34;102021.75;;;2.78;94.58
66176;BME280;52977;44.816;20.538;2024-01-30T04:16:02;102020.56;;;2.67;94.20
66176;BME280;52977;44.816;20.538;2024-01-30T04:18:29;102023.69;;;2.64;94.10
66176;BME280;52977;44.816;20.538;2024-01-30T04:20:56;102016.81;;;2.68;94.57
66176;BME280;52977;44.816;20.538;2024-01-30T04:23:22;102019.72;;;2.66;94.26
66176;BME280;52977;44.816;20.538;2024-01-30T04:25:48;102018.91;;;2.66;94.13
66176;BME280;52977;44.816;20.538;2024-01-30T04:28:15;102020.38;;;2.62;93.55
66176;BME280;52977;44.816;20.538;2024-01-30T04:30:41;102029.09;;;2.64;94.35
66176;BME280;52977;44.816;20.538;2024-01-30T04:33:07;102028.25;;;2.56;93.54
66176;BME280;52977;44.816;20.538;2024-01-30T04:35:34;102031.78;;;2.64;94.08
66176;BME280;52977;44.816;20.538;2024-01-30T04:38:00;102032.19;;;2.61;94.16
66176;BME280;52977;44.816;20.538;2024-01-30T04:40:26;102032.19;;;2.54;94.04
66176;BME280;52977;44.816;20.538;2024-01-30T04:42:52;102034.28;;;2.59;94.49
66176;BME280;52977;44.816;20.538;2024-01-30T04:45:19;102032.63;;;2.58;93.82
66176;BME280;52977;44.816;20.538;2024-01-30T04:47:45;102039.91;;;2.57;93.94
66176;BME280;52977;44.816;20.538;2024-01-30T04:50:12;102039.25;;;2.55;94.34
66176;BME280;52977;44.816;20.538;2024-01-30T04:52:38;102048.81;;;2.51;93.04
66176;BME280;52977;44.816;20.538;2024-01-30T04:55:05;102044.88;;;2.53;93.90
66176;BME280;52977;44.816;20.538;2024-01-30T04:57:31;102047.19;;;2.50;93.67
66176;BME280;52977;44.816;20.538;2024-01-30T04:59:59;102045.31;;;2.44;93.51
66176;BME280;52977;44.816;20.538;2024-01-30T05:02:26;102051.50;;;2.51;94.26
66176;BME280;52977;44.816;20.538;2024-01-30T05:04:52;102056.28;;;2.55;93.44
66176;BME280;52977;44.816;20.538;2024-01-30T05:07:19;102045.88;;;2.59;93.25
66176;BME280;52977;44.816;20.538;2024-01-30T05:09:45;102054.19;;;2.58;93.06
66176;BME280;52977;44.816;20.538;2024-01-30T05:12:11;102050.25;;;2.53;93.63
66176;BME280;52977;44.816;20.538;2024-01-30T05:14:38;102049.44;;;2.53;93.09
66176;BME280;52977;44.816;20.538;2024-01-30T05:17:04;102050.06;;;2.48;94.00
66176;BME280;52977;44.816;20.538;2024-01-30T05:19:30;102052.13;;;2.53;92.82
66176;BME280;52977;44.816;20.538;2024-01-30T05:21:56;102052.56;;;2.50;92.32
66176;BME280;52977;44.816;20.538;2024-01-30T05:24:23;102048.63;;;2.46;91.75
66176;BME280;52977;44.816;20.538;2024-01-30T05:26:49;102056.28;;;2.49;93.38
66176;BME280;52977;44.816;20.538;2024-01-30T05:29:16;102054.22;;;2.44;91.97
66176;BME280;52977;44.816;20.538;2024-01-30T05:31:42;102061.69;;;2.42;92.77
66176;BME280;52977;44.816;20.538;2024-01-30T05:34:08;102053.00;;;2.40;92.75
66176;BME280;52977;44.816;20.538;2024-01-30T05:36:35;102060.88;;;2.35;92.67
66176;BME280;52977;44.816;20.538;2024-01-30T05:39:01;102064.19;;;2.44;92.81
66176;BME280;52977;44.816;20.538;2024-01-30T05:41:28;102051.31;;;2.46;92.14
66176;BME280;52977;44.816;20.538;2024-01-30T05:43:54;102057.97;;;2.43;92.02
66176;BME280;52977;44.816;20.538;2024-01-30T05:46:20;102058.56;;;2.38;91.74
66176;BME280;52977;44.816;20.538;2024-01-30T05:48:46;102059.81;;;2.43;91.41
66176;BME280;52977;44.816;20.538;2024-01-30T05:51:13;102066.25;;;2.42;91.93
66176;BME280;52977;44.816;20.538;2024-01-30T05:53:39;102070.00;;;2.41;91.64
66176;BME280;52977;44.816;20.538;2024-01-30T05:56:05;102067.50;;;2.46;91.25
66176;BME280;52977;44.816;20.538;2024-01-30T05:58:31;102062.72;;;2.48;91.10
66176;BME280;52977;44.816;20.538;2024-01-30T06:00:57;102062.72;;;2.48;90.83
66176;BME280;52977;44.816;20.538;2024-01-30T06:03:24;102076.63;;;2.45;91.04
66176;BME280;52977;44.816;20.538;2024-01-30T06:05:50;102073.72;;;2.53;90.10
66176;BME280;52977;44.816;20.538;2024-01-30T06:08:17;102080.34;;;2.50;89.85
66176;BME280;52977;44.816;20.538;2024-01-30T06:10:44;102074.53;;;2.47;89.95
66176;BME280;52977;44.816;20.538;2024-01-30T06:13:10;102075.38;;;2.47;89.62
66176;BME280;52977;44.816;20.538;2024-01-30T06:15:36;102076.84;;;2.43;89.57
66176;BME280;52977;44.816;20.538;2024-01-30T06:18:03;102077.88;;;2.42;89.63
66176;BME280;52977;44.816;20.538;2024-01-30T06:20:29;102082.00;;;2.38;89.66
66176;BME280;52977;44.816;20.538;2024-01-30T06:22:56;102087.41;;;2.45;88.65
66176;BME280;52977;44.816;20.538;2024-01-30T06:25:21;102085.97;;;2.42;88.96
66176;BME280;52977;44.816;20.538;2024-01-30T06:27:47;102089.88;;;2.39;88.47
66176;BME280;52977;44.816;20.538;2024-01-30T06:30:13;102090.75;;;2.33;87.96
66176;BME280;52977;44.816;20.538;2024-01-30T06:32:38;102095.50;;;2.38;87.79
66176;BME280;52977;44.816;20.538;2024-01-30T06:35:05;102093.44;;;2.40;87.74
66176;BME280;52977;44.816;20.538;2024-01-30T06:37:31;102089.06;;;2.39;87.55
66176;BME280;52977;44.816;20.538;2024-01-30T06:39:57;102090.09;;;2.38;86.85
66176;BME280;52977;44.816;20.538;2024-01-30T06:42:23;102087.84;;;2.35;87.30
66176;BME280;52977;44.816;20.538;2024-01-30T06:44:49;102091.56;;;2.41;87.21
66176;BME280;52977;44.816;20.538;2024-01-30T06:47:15;102095.28;;;2.46;86.39
66176;BME280;52977;44.816;20.538;2024-01-30T06:49:41;102100.25;;;2.49;86.59
66176;BME280;52977;44.816;20.538;2024-01-30T06:52:08;102102.72;;;2.51;86.22
66176;BME280;52977;44.816;20.538;2024-01-30T06:54:34;102093.63;;;2.52;85.88
66176;BME280;52977;44.816;20.538;2024-01-30T06:57:00;102092.59;;;2.53;85.67
66176;BME280;52977;44.816;20.538;2024-01-30T06:59:26;102094.84;;;2.49;85.70
66176;BME280;52977;44.816;20.538;2024-01-30T07:01:53;102096.53;;;2.50;85.72
66176;BME280;52977;44.816;20.538;2024-01-30T07:04:20;102102.13;;;2.55;85.94
66176;BME280;52977;44.816;20.538;2024-01-30T07:06:46;102100.66;;;2.60;85.90
66176;BME280;52977;44.816;20.538;2024-01-30T07:09:12;102104.78;;;2.62;85.19
66176;BME280;52977;44.816;20.538;2024-01-30T07:11:39;102100.19;;;2.76;86.27
66176;BME280;52977;44.816;20.538;2024-01-30T07:14:05;102100.63;;;2.73;85.14
66176;BME280;52977;44.816;20.538;2024-01-30T07:16:30;102103.97;;;2.68;84.38
66176;BME280;52977;44.816;20.538;2024-01-30T07:18:56;102103.31;;;2.73;86.18
66176;BME280;52977;44.816;20.538;2024-01-30T07:21:22;102103.34;;;2.66;85.33
66176;BME280;52977;44.816;20.538;2024-01-30T07:23:54;102103.13;;;2.68;85.50
66176;BME280;52977;44.816;20.538;2024-01-30T07:26:20;102098.16;;;2.65;85.77
66176;BME280;52977;44.816;20.538;2024-01-30T07:28:45;102103.75;;;2.70;86.29
66176;BME280;52977;44.816;20.538;2024-01-30T07:31:11;102102.94;;;2.69;85.58
66176;BME280;52977;44.816;20.538;2024-01-30T07:33:37;102101.28;;;2.68;86.00
66176;BME280;52977;44.816;20.538;2024-01-30T07:36:04;102100.63;;;2.73;86.17
66176;BME280;52977;44.816;20.538;2024-01-30T07:38:33;102102.28;;;2.74;85.75
66176;BME280;52977;44.816;20.538;2024-01-30T07:40:59;102105.81;;;2.68;86.16
66176;BME280;52977;44.816;20.538;2024-01-30T07:43:25;102110.78;;;2.78;85.79
66176;BME280;52977;44.816;20.538;2024-01-30T07:45:51;102100.84;;;2.78;85.97
66176;BME280;52977;44.816;20.538;2024-01-30T07:48:16;102107.25;;;2.84;85.58
66176;BME280;52977;44.816;20.538;2024-01-30T07:50:42;102108.91;;;2.85;85.42
66176;BME280;52977;44.816;20.538;2024-01-30T07:53:08;102107.63;;;2.87;85.91
66176;BME280;52977;44.816;20.538;2024-01-30T07:55:33;102108.69;;;2.93;84.90
66176;BME280;52977;44.816;20.538;2024-01-30T07:58:00;102099.72;;;2.99;84.59
66176;BME280;52977;44.816;20.538;2024-01-30T08:00:26;102104.09;;;3.00;84.18
66176;BME280;52977;44.816;20.538;2024-01-30T08:02:55;102107.19;;;3.04;84.91
66176;BME280;52977;44.816;20.538;2024-01-30T08:05:22;102103.00;;;3.15;86.55
66176;BME280;52977;44.816;20.538;2024-01-30T08:07:49;102099.00;;;3.69;90.10
66176;BME280;52977;44.816;20.538;2024-01-30T08:10:15;102105.50;;;3.62;84.19
66176;BME280;52977;44.816;20.538;2024-01-30T08:12:44;102105.78;;;3.47;82.67
66176;BME280;52977;44.816;20.538;2024-01-30T08:15:11;102098.53;;;3.40;82.64
66176;BME280;52977;44.816;20.538;2024-01-30T08:17:39;102105.19;;;3.38;83.28
66176;BME280;52977;44.816;20.538;2024-01-30T08:20:06;102109.97;;;3.36;82.83
66176;BME280;52977;44.816;20.538;2024-01-30T08:22:34;102108.13;;;3.36;82.62
66176;BME280;52977;44.816;20.538;2024-01-30T08:25:00;102105.38;;;3.43;82.61
66176;BME280;52977;44.816;20.538;2024-01-30T08:27:26;102112.03;;;3.40;82.44
66176;BME280;52977;44.816;20.538;2024-01-30T08:29:53;102108.25;;;3.48;83.17
66176;BME280;52977;44.816;20.538;2024-01-30T08:32:19;102113.22;;;3.51;83.10
66176;BME280;52977;44.816;20.538;2024-01-30T08:34:45;102113.41;;;3.56;83.58
66176;BME280;52977;44.816;20.538;2024-01-30T08:37:11;102115.66;;;3.59;82.80
66176;BME280;52977;44.816;20.538;2024-01-30T08:39:38;102115.41;;;3.68;82.58
66176;BME280;52977;44.816;20.538;2024-01-30T08:42:04;102117.69;;;3.71;82.21
66176;BME280;52977;44.816;20.538;2024-01-30T08:44:30;102114.34;;;3.75;82.05
66176;BME280;52977;44.816;20.538;2024-01-30T08:46:55;102117.22;;;3.81;81.21
66176;BME280;52977;44.816;20.538;2024-01-30T08:49:21;102117.44;;;3.79;80.49
66176;BME280;52977;44.816;20.538;2024-01-30T08:51:47;102114.09;;;3.84;81.39
66176;BME280;52977;44.816;20.538;2024-01-30T08:54:12;102111.81;;;3.81;81.90
66176;BME280;52977;44.816;20.538;2024-01-30T08:56:39;102111.75;;;3.87;81.52
66176;BME280;52977;44.816;20.538;2024-01-30T08:59:05;102116.34;;;3.87;80.71
66176;BME280;52977;44.816;20.538;2024-01-30T09:01:32;102119.44;;;3.90;80.89
66176;BME280;52977;44.816;20.538;2024-01-30T09:03:57;102114.44;;;3.94;80.97
66176;BME280;52977;44.816;20.538;2024-01-30T09:06:23;102123.53;;;4.00;80.36
66176;BME280;52977;44.816;20.538;2024-01-30T09:08:54;102123.53;;;4.00;80.94
66176;BME280;52977;44.816;20.538;2024-01-30T09:11:20;102121.25;;;4.03;80.78
66176;BME280;52977;44.816;20.538;2024-01-30T09:13:46;102122.00;;;4.10;80.60
66176;BME280;52977;44.816;20.538;2024-01-30T09:16:12;102112.47;;;4.08;79.63
66176;BME280;52977;44.816;20.538;2024-01-30T09:18:37;102114.94;;;4.09;79.62
66176;BME280;52977;44.816;20.538;2024-01-30T09:21:04;102118.25;;;4.11;79.44
66176;BME280;52977;44.816;20.538;2024-01-30T09:23:29;102112.78;;;4.18;79.40
66176;BME280;52977;44.816;20.538;2024-01-30T09:25:55;102114.84;;;4.23;78.68
66176;BME280;52977;44.816;20.538;2024-01-30T09:28:21;102114.41;;;4.26;79.06
66176;BME280;52977;44.816;20.538;2024-01-30T09:30:47;102111.19;;;4.36;77.83
66176;BME280;52977;44.816;20.538;2024-01-30T09:33:13;102107.22;;;4.38;76.92
66176;BME280;52977;44.816;20.538;2024-01-30T09:35:39;102101.59;;;4.40;76.13
66176;BME280;52977;44.816;20.538;2024-01-30T09:38:05;102107.38;;;4.43;76.09
66176;BME280;52977;44.816;20.538;2024-01-30T09:40:31;102109.84;;;4.45;75.83
66176;BME280;52977;44.816;20.538;2024-01-30T09:42:58;102103.03;;;4.42;76.57
66176;BME280;52977;44.816;20.538;2024-01-30T09:45:26;102104.88;;;4.42;76.07
66176;BME280;52977;44.816;20.538;2024-01-30T09:47:53;102106.72;;;4.48;75.27
66176;BME280;52977;44.816;20.538;2024-01-30T09:50:19;102104.78;;;4.55;75.09
66176;BME280;52977;44.816;20.538;2024-01-30T09:52:47;102109.75;;;4.58;75.48
66176;BME280;52977;44.816;20.538;2024-01-30T09:55:14;102107.78;;;4.66;75.11
66176;BME280;52977;44.816;20.538;2024-01-30T09:57:41;102103.59;;;4.70;74.40
66176;BME280;52977;44.816;20.538;2024-01-30T10:00:08;102092.75;;;4.70;75.44
66176;BME280;52977;44.816;20.538;2024-01-30T10:02:40;102096.22;;;4.77;75.76
66176;BME280;52977;44.816;20.538;2024-01-30T10:05:08;102095.34;;;4.83;75.25
66176;BME280;52977;44.816;20.538;2024-01-30T10:07:34;102097.59;;;4.86;75.28
66176;BME280;52977;44.816;20.538;2024-01-30T10:10:01;102091.72;;;4.89;75.28
66176;BME280;52977;44.816;20.538;2024-01-30T10:12:29;102086.09;;;4.91;76.11
66176;BME280;52977;44.816;20.538;2024-01-30T10:14:56;102089.41;;;4.93;74.98
66176;BME280;52977;44.816;20.538;2024-01-30T10:17:25;102089.63;;;4.91;74.20
66176;BME280;52977;44.816;20.538;2024-01-30T10:19:51;102088.56;;;4.92;74.28
66176;BME280;52977;44.816;20.538;2024-01-30T10:22:21;102091.66;;;4.77;76.18
66176;BME280;52977;44.816;20.538;2024-01-30T10:24:48;102079.16;;;4.58;76.50
66176;BME280;52977;44.816;20.538;2024-01-30T10:27:23;102085.38;;;4.15;78.56
66176;BME280;52977;44.816;20.538;2024-01-30T10:29:50;102089.34;;;4.12;78.13
66176;BME280;52977;44.816;20.538;2024-01-30T10:32:17;102083.13;;;4.37;77.52
66176;BME280;52977;44.816;20.538;2024-01-30T10:34:43;102088.78;;;4.54;77.85
66176;BME280;52977;44.816;20.538;2024-01-30T10:37:10;102081.69;;;4.53;76.67
66176;BME280;52977;44.816;20.538;2024-01-30T10:39:44;102085.22;;;4.53;76.93
66176;BME280;52977;44.816;20.538;2024-01-30T10:42:15;102078.56;;;4.74;77.04
66176;BME280;52977;44.816;20.538;2024-01-30T10:47:21;102069.00;;;4.53;76.23
66176;BME280;52977;44.816;20.538;2024-01-30T10:49:51;102072.09;;;4.75;75.68
66176;BME280;52977;44.816;20.538;2024-01-30T10:52:18;102059.63;;;4.93;74.12
66176;BME280;52977;44.816;20.538;2024-01-30T10:54:46;102052.94;;;4.95;74.04
66176;BME280;52977;44.816;20.538;2024-01-30T10:57:14;102061.72;;;4.91;75.41
66176;BME280;52977;44.816;20.538;2024-01-30T10:59:41;102055.03;;;4.56;76.03
66176;BME280;52977;44.816;20.538;2024-01-30T11:02:09;102054.13;;;4.44;77.58
66176;BME280;52977;44.816;20.538;2024-01-30T11:04:40;102052.53;;;4.55;77.48
66176;BME280;52977;44.816;20.538;2024-01-30T11:07:23;102050.91;;;4.54;76.85
66176;BME280;52977;44.816;20.538;2024-01-30T11:12:47;102044.88;;;4.52;76.92
66176;BME280;52977;44.816;20.538;2024-01-30T11:15:16;102043.38;;;4.56;76.65
66176;BME280;52977;44.816;20.538;2024-01-30T11:20:10;102029.91;;;4.31;77.88
66176;BME280;52977;44.816;20.538;2024-01-30T11:22:37;102032.03;;;4.66;78.89
66176;BME280;52977;44.816;20.538;2024-01-30T11:25:04;102037.00;;;4.69;76.54
66176;BME280;52977;44.816;20.538;2024-01-30T11:27:30;102032.56;;;4.74;76.43
66176;BME280;52977;44.816;20.538;2024-01-30T11:30:04;102021.91;;;4.61;76.01
66176;BME280;52977;44.816;20.538;2024-01-30T11:32:31;102024.50;;;4.49;77.04
66176;BME280;52977;44.816;20.538;2024-01-30T11:34:57;102025.13;;;4.51;75.82
66176;BME280;52977;44.816;20.538;2024-01-30T11:37:25;102017.31;;;4.61;75.76
66176;BME280;52977;44.816;20.538;2024-01-30T11:40:11;102019.78;;;4.63;74.69
66176;BME280;52977;44.816;20.538;2024-01-30T11:42:38;102015.81;;;4.66;73.91
66176;BME280;52977;44.816;20.538;2024-01-30T11:45:05;102014.63;;;4.80;73.99
66176;BME280;52977;44.816;20.538;2024-01-30T11:47:35;102010.44;;;4.96;73.65
66176;BME280;52977;44.816;20.538;2024-01-30T11:50:03;102006.81;;;5.21;71.00
66176;BME280;52977;44.816;20.538;2024-01-30T11:52:29;102000.69;;;5.25;69.67
66176;BME280;52977;44.816;20.538;2024-01-30T11:54:56;102003.59;;;4.93;69.22
66176;BME280;52977;44.816;20.538;2024-01-30T11:57:22;102006.63;;;5.04;69.35
66176;BME280;52977;44.816;20.538;2024-01-30T11:59:48;101994.94;;;5.03;68.98
66176;BME280;52977;44.816;20.538;2024-01-30T12:02:16;101992.94;;;4.99;68.01
66176;BME280;52977;44.816;20.538;2024-01-30T12:04:42;101982.78;;;4.94;67.84
66176;BME280;52977;44.816;20.538;2024-01-30T12:07:09;101985.78;;;5.04;66.76
66176;BME280;52977;44.816;20.538;2024-01-30T12:09:35;101976.16;;;5.20;65.31
66176;BME280;52977;44.816;20.538;2024-01-30T12:12:01;101983.69;;;5.48;66.30
66176;BME280;52977;44.816;20.538;2024-01-30T12:14:27;101982.88;;;5.72;65.00
66176;BME280;52977;44.816;20.538;2024-01-30T12:16:54;101980.84;;;5.55;61.05
66176;BME280;52977;44.816;20.538;2024-01-30T12:19:24;101978.13;;;5.55;60.92
66176;BME280;52977;44.816;20.538;2024-01-30T12:21:57;101973.66;;;5.49;62.50
66176;BME280;52977;44.816;20.538;2024-01-30T12:24:42;101966.16;;;5.75;61.62
66176;BME280;52977;44.816;20.538;2024-01-30T12:27:09;101966.69;;;6.07;61.48
66176;BME280;52977;44.816;20.538;2024-01-30T12:29:35;101967.00;;;6.35;60.95
66176;BME280;52977;44.816;20.538;2024-01-30T12:32:01;101961.53;;;6.58;59.28
66176;BME280;52977;44.816;20.538;2024-01-30T12:34:28;101963.50;;;6.75;56.29
66176;BME280;52977;44.816;20.538;2024-01-30T12:36:54;101959.66;;;6.88;53.71
66176;BME280;52977;44.816;20.538;2024-01-30T12:39:20;101968.75;;;6.93;52.67
66176;BME280;52977;44.816;20.538;2024-01-30T12:41:48;101961.22;;;6.43;53.95
66176;BME280;52977;44.816;20.538;2024-01-30T12:44:14;101947.78;;;6.36;52.70
66176;BME280;52977;44.816;20.538;2024-01-30T12:46:40;101952.06;;;6.08;53.34
66176;BME280;52977;44.816;20.538;2024-01-30T12:49:06;101949.47;;;6.13;52.30
66176;BME280;52977;44.816;20.538;2024-01-30T12:51:34;101953.84;;;6.14;52.98
66176;BME280;52977;44.816;20.538;2024-01-30T12:54:05;101954.03;;;6.37;54.00
66176;BME280;52977;44.816;20.538;2024-01-30T12:56:31;101956.47;;;6.62;54.44